sensor_id;sensor_type;location;lat;lon;timestamp;temperature;humidity
7163;DHT22;3623;47.098;15.446;2022-11-09T00:00:37;5.50;99.90
7163;DHT22;3623;47.098;15.446;2022-11-09T00:03:04;5.50;99.90
7163;DHT22;3623;47.098;15.446;2022-11-09T00:05:31;5.50;99.90
7163;DHT22;3623;47.098;15.446;2022-11-09T00:07:58;5.50;99.90
7163;DHT22;3623;47.098;15.446;2022-11-09T00:10:27;5.50;99.90
7163;DHT22;3623;47.098;15.446;2022-11-09T00:12:54;5.40;99.90
7163;DHT22;3623;47.098;15.446;2022-11-09T00:15:21;5.50;99.90
7163;DHT22;3623;47.098;15.446;2022-11-09T00:17:48;5.50;99.90
7163;DHT22;3623;47.098;15.446;2022-11-09T00:20:15;5.50;99.90
7163;DHT22;3623;47.098;15.446;2022-11-09T00:22:46;5.50;99.90
7163;DHT22;3623;47.098;15.446;2022-11-09T00:25:13;5.50;99.90
7163;DHT22;3623;47.098;15.446;2022-11-09T00:27:42;5.40;99.90
7163;DHT22;3623;47.098;15.446;2022-11-09T00:30:10;5.40;99.90
7163;DHT22;3623;47.098;15.446;2022-11-09T00:32:37;5.40;99.90
7163;DHT22;3623;47.098;15.446;2022-11-09T00:35:05;5.40;99.90
7163;DHT22;3623;47.098;15.446;2022-11-09T00:37:32;5.40;99.90
7163;DHT22;3623;47.098;15.446;2022-11-09T00:39:59;5.30;99.90
7163;DHT22;3623;47.098;15.446;2022-11-09T00:42:26;5.30;99.90
7163;DHT22;3623;47.098;15.446;2022-11-09T00:44:54;5.30;99.90
7163;DHT22;3623;47.098;15.446;2022-11-09T00:47:22;5.40;99.90
7163;DHT22;3623;47.098;15.446;2022-11-09T00:49:49;5.40;99.90
7163;DHT22;3623;47.098;15.446;2022-11-09T00:52:16;5.40;99.90
7163;DHT22;3623;47.098;15.446;2022-11-09T00:54:43;5.30;99.90
7163;DHT22;3623;47.098;15.446;2022-11-09T00:57:11;5.30;99.90
7163;DHT22;3623;47.098;15.446;2022-11-09T00:59:39;5.30;99.90
7163;DHT22;3623;47.098;15.446;2022-11-09T01:02:07;5.30;99.90
7163;DHT22;3623;47.098;15.446;2022-11-09T01:04:34;5.30;99.90
7163;DHT22;3623;47.098;15.446;2022-11-09T01:07:01;5.30;99.90
7163;DHT22;3623;47.098;15.446;2022-11-09T01:09:28;5.30;99.90
7163;DHT22;3623;47.098;15.446;2022-11-09T01:11:55;5.30;99.90
7163;DHT22;3623;47.098;15.446;2022-11-09T01:14:22;5.20;99.90
7163;DHT22;3623;47.098;15.446;2022-11-09T01:16:50;5.20;99.90
7163;DHT22;3623;47.098;15.446;2022-11-09T01:19:18;5.20;99.90
7163;DHT22;3623;47.098;15.446;2022-11-09T01:21:45;5.20;99.90
7163;DHT22;3623;47.098;15.446;2022-11-09T01:24:12;5.10;99.90
7163;DHT22;3623;47.098;15.446;2022-11-09T01:26:39;5.10;99.90
7163;DHT22;3623;47.098;15.446;2022-11-09T01:29:07;5.10;99.90
7163;DHT22;3623;47.098;15.446;2022-11-09T01:31:34;5.10;99.90
7163;DHT22;3623;47.098;15.446;2022-11-09T01:34:01;5.10;99.90
7163;DHT22;3623;47.098;15.446;2022-11-09T01:36:29;5.10;99.90
7163;DHT22;3623;47.098;15.446;2022-11-09T01:38:56;5.10;99.90
7163;DHT22;3623;47.098;15.446;2022-11-09T01:41:25;5.10;99.90
7163;DHT22;3623;47.098;15.446;2022-11-09T01:44:04;5.10;99.90
7163;DHT22;3623;47.098;15.446;2022-11-09T01:46:35;5.10;99.90
7163;DHT22;3623;47.098;15.446;2022-11-09T01:49:07;5.20;99.90
7163;DHT22;3623;47.098;15.446;2022-11-09T01:51:38;5.20;99.90
7163;DHT22;3623;47.098;15.446;2022-11-09T01:54:11;5.20;99.90
7163;DHT22;3623;47.098;15.446;2022-11-09T01:56:42;5.20;99.90
7163;DHT22;3623;47.098;15.446;2022-11-09T01:59:14;5.20;99.90
7163;DHT22;3623;47.098;15.446;2022-11-09T02:01:42;5.20;99.90
7163;DHT22;3623;47.098;15.446;2022-11-09T02:04:11;5.20;99.90
7163;DHT22;3623;47.098;15.446;2022-11-09T02:06:41;5.20;99.90
7163;DHT22;3623;47.098;15.446;2022-11-09T02:09:13;5.20;99.90
7163;DHT22;3623;47.098;15.446;2022-11-09T02:11:43;5.20;99.90
7163;DHT22;3623;47.098;15.446;2022-11-09T02:14:11;5.10;99.90
7163;DHT22;3623;47.098;15.446;2022-11-09T02:16:39;5.10;99.90
7163;DHT22;3623;47.098;15.446;2022-11-09T02:19:07;5.10;99.90
7163;DHT22;3623;47.098;15.446;2022-11-09T02:21:36;5.20;99.90
7163;DHT22;3623;47.098;15.446;2022-11-09T02:24:04;5.10;99.90
7163;DHT22;3623;47.098;15.446;2022-11-09T02:26:35;5.10;99.90
7163;DHT22;3623;47.098;15.446;2022-11-09T02:29:06;5.00;99.90
7163;DHT22;3623;47.098;15.446;2022-11-09T02:31:37;5.00;99.90
7163;DHT22;3623;47.098;15.446;2022-11-09T02:34:07;4.90;99.90
7163;DHT22;3623;47.098;15.446;2022-11-09T02:36:36;4.90;99.90
7163;DHT22;3623;47.098;15.446;2022-11-09T02:39:04;4.90;99.90
7163;DHT22;3623;47.098;15.446;2022-11-09T02:41:31;4.90;99.90
7163;DHT22;3623;47.098;15.446;2022-11-09T02:44:02;4.90;99.90
7163;DHT22;3623;47.098;15.446;2022-11-09T02:46:32;4.90;99.90
7163;DHT22;3623;47.098;15.446;2022-11-09T02:49:00;4.90;99.90
7163;DHT22;3623;47.098;15.446;2022-11-09T02:51:27;4.80;99.90
7163;DHT22;3623;47.098;15.446;2022-11-09T02:53:56;4.80;99.90
7163;DHT22;3623;47.098;15.446;2022-11-09T02:56:23;4.80;99.90
7163;DHT22;3623;47.098;15.446;2022-11-09T02:58:51;4.80;99.90
7163;DHT22;3623;47.098;15.446;2022-11-09T03:01:18;4.80;99.90
7163;DHT22;3623;47.098;15.446;2022-11-09T03:03:45;4.80;99.90
7163;DHT22;3623;47.098;15.446;2022-11-09T03:06:13;4.80;99.90
7163;DHT22;3623;47.098;15.446;2022-11-09T03:08:40;4.80;99.90
7163;DHT22;3623;47.098;15.446;2022-11-09T03:11:08;4.70;99.90
7163;DHT22;3623;47.098;15.446;2022-11-09T03:13:36;4.70;99.90
7163;DHT22;3623;47.098;15.446;2022-11-09T03:16:04;4.70;99.90
7163;DHT22;3623;47.098;15.446;2022-11-09T03:18:31;4.70;99.90
7163;DHT22;3623;47.098;15.446;2022-11-09T03:21:02;4.70;99.90
7163;DHT22;3623;47.098;15.446;2022-11-09T03:23:29;4.70;99.90
7163;DHT22;3623;47.098;15.446;2022-11-09T03:25:57;4.60;99.90
7163;DHT22;3623;47.098;15.446;2022-11-09T03:28:25;4.60;99.90
7163;DHT22;3623;47.098;15.446;2022-11-09T03:30:52;4.60;99.90
7163;DHT22;3623;47.098;15.446;2022-11-09T03:33:19;4.60;99.90
7163;DHT22;3623;47.098;15.446;2022-11-09T03:35:47;4.60;99.90
7163;DHT22;3623;47.098;15.446;2022-11-09T03:38:14;4.60;99.90
7163;DHT22;3623;47.098;15.446;2022-11-09T03:40:41;4.60;99.90
7163;DHT22;3623;47.098;15.446;2022-11-09T03:43:08;4.60;99.90
7163;DHT22;3623;47.098;15.446;2022-11-09T03:45:37;4.60;99.90
7163;DHT22;3623;47.098;15.446;2022-11-09T03:48:05;4.60;99.90
7163;DHT22;3623;47.098;15.446;2022-11-09T03:50:33;4.60;99.90
7163;DHT22;3623;47.098;15.446;2022-11-09T03:53:00;4.60;99.90
7163;DHT22;3623;47.098;15.446;2022-11-09T03:55:27;4.50;99.90
7163;DHT22;3623;47.098;15.446;2022-11-09T03:57:55;4.50;99.90
7163;DHT22;3623;47.098;15.446;2022-11-09T04:00:22;4.50;99.90
7163;DHT22;3623;47.098;15.446;2022-11-09T04:02:51;4.50;99.90
7163;DHT22;3623;47.098;15.446;2022-11-09T04:05:18;4.50;99.90
7163;DHT22;3623;47.098;15.446;2022-11-09T04:07:46;4.50;99.90
7163;DHT22;3623;47.098;15.446;2022-11-09T04:10:14;4.50;99.90
7163;DHT22;3623;47.098;15.446;2022-11-09T04:12:41;4.50;99.90
7163;DHT22;3623;47.098;15.446;2022-11-09T04:15:09;4.50;99.90
7163;DHT22;3623;47.098;15.446;2022-11-09T04:17:36;4.50;99.90
7163;DHT22;3623;47.098;15.446;2022-11-09T04:20:07;4.50;99.90
7163;DHT22;3623;47.098;15.446;2022-11-09T04:22:34;4.50;99.90
7163;DHT22;3623;47.098;15.446;2022-11-09T04:25:02;4.50;99.90
7163;DHT22;3623;47.098;15.446;2022-11-09T04:27:29;4.50;99.90
7163;DHT22;3623;47.098;15.446;2022-11-09T04:29:56;4.50;99.90
7163;DHT22;3623;47.098;15.446;2022-11-09T04:32:23;4.40;99.90
7163;DHT22;3623;47.098;15.446;2022-11-09T04:34:50;4.40;99.90
7163;DHT22;3623;47.098;15.446;2022-11-09T04:37:19;4.40;99.90
7163;DHT22;3623;47.098;15.446;2022-11-09T04:39:46;4.40;99.90
7163;DHT22;3623;47.098;15.446;2022-11-09T04:42:13;4.40;99.90
7163;DHT22;3623;47.098;15.446;2022-11-09T04:44:40;4.40;99.90
7163;DHT22;3623;47.098;15.446;2022-11-09T04:47:07;4.50;99.90
7163;DHT22;3623;47.098;15.446;2022-11-09T04:49:34;4.50;99.90
7163;DHT22;3623;47.098;15.446;2022-11-09T04:52:01;4.50;99.90
7163;DHT22;3623;47.098;15.446;2022-11-09T04:54:29;4.50;99.90
7163;DHT22;3623;47.098;15.446;2022-11-09T04:56:56;4.50;99.90
7163;DHT22;3623;47.098;15.446;2022-11-09T04:59:23;4.40;99.90
7163;DHT22;3623;47.098;15.446;2022-11-09T05:01:50;4.40;99.90
7163;DHT22;3623;47.098;15.446;2022-11-09T05:04:18;4.30;99.90
7163;DHT22;3623;47.098;15.446;2022-11-09T05:06:45;4.30;99.90
7163;DHT22;3623;47.098;15.446;2022-11-09T05:09:12;4.30;99.90
7163;DHT22;3623;47.098;15.446;2022-11-09T05:11:41;4.30;99.90
7163;DHT22;3623;47.098;15.446;2022-11-09T05:14:08;4.30;99.90
7163;DHT22;3623;47.098;15.446;2022-11-09T05:16:35;4.30;99.90
7163;DHT22;3623;47.098;15.446;2022-11-09T05:19:02;4.30;99.90
7163;DHT22;3623;47.098;15.446;2022-11-09T05:21:29;4.30;99.90
7163;DHT22;3623;47.098;15.446;2022-11-09T05:23:56;4.40;99.90
7163;DHT22;3623;47.098;15.446;2022-11-09T05:26:26;4.30;99.90
7163;DHT22;3623;47.098;15.446;2022-11-09T05:28:54;4.20;99.90
7163;DHT22;3623;47.098;15.446;2022-11-09T05:31:22;4.20;99.90
7163;DHT22;3623;47.098;15.446;2022-11-09T05:33:49;4.20;99.90
7163;DHT22;3623;47.098;15.446;2022-11-09T05:36:17;4.20;99.90
7163;DHT22;3623;47.098;15.446;2022-11-09T05:38:45;4.20;99.90
7163;DHT22;3623;47.098;15.446;2022-11-09T05:41:13;4.20;99.90
7163;DHT22;3623;47.098;15.446;2022-11-09T05:43:40;4.20;99.90
7163;DHT22;3623;47.098;15.446;2022-11-09T05:46:10;4.20;99.90
7163;DHT22;3623;47.098;15.446;2022-11-09T05:48:38;4.20;99.90
7163;DHT22;3623;47.098;15.446;2022-11-09T05:51:07;4.20;99.90
7163;DHT22;3623;47.098;15.446;2022-11-09T05:53:34;4.20;99.90
7163;DHT22;3623;47.098;15.446;2022-11-09T05:56:02;4.20;99.90
7163;DHT22;3623;47.098;15.446;2022-11-09T05:58:31;4.20;99.90
7163;DHT22;3623;47.098;15.446;2022-11-09T06:01:02;4.10;99.90
7163;DHT22;3623;47.098;15.446;2022-11-09T06:03:31;4.10;99.90
7163;DHT22;3623;47.098;15.446;2022-11-09T06:06:02;4.10;99.90
7163;DHT22;3623;47.098;15.446;2022-11-09T06:08:29;4.10;99.90
7163;DHT22;3623;47.098;15.446;2022-11-09T06:10:58;4.40;99.90
7163;DHT22;3623;47.098;15.446;2022-11-09T06:13:25;4.20;99.90
7163;DHT22;3623;47.098;15.446;2022-11-09T06:15:53;4.20;99.90
7163;DHT22;3623;47.098;15.446;2022-11-09T06:18:21;4.20;99.90
7163;DHT22;3623;47.098;15.446;2022-11-09T06:20:52;4.20;99.90
7163;DHT22;3623;47.098;15.446;2022-11-09T06:23:19;4.20;99.90
7163;DHT22;3623;47.098;15.446;2022-11-09T06:25:51;4.20;99.90
7163;DHT22;3623;47.098;15.446;2022-11-09T06:28:19;4.20;99.90
7163;DHT22;3623;47.098;15.446;2022-11-09T06:30:46;4.30;99.90
7163;DHT22;3623;47.098;15.446;2022-11-09T06:33:13;4.30;99.90
7163;DHT22;3623;47.098;15.446;2022-11-09T06:35:40;4.30;99.90
7163;DHT22;3623;47.098;15.446;2022-11-09T06:38:09;4.30;99.90
7163;DHT22;3623;47.098;15.446;2022-11-09T06:40:37;4.30;99.90
7163;DHT22;3623;47.098;15.446;2022-11-09T06:43:05;4.30;99.90
7163;DHT22;3623;47.098;15.446;2022-11-09T06:45:32;4.30;99.90
7163;DHT22;3623;47.098;15.446;2022-11-09T06:48:00;4.40;99.90
7163;DHT22;3623;47.098;15.446;2022-11-09T06:50:30;4.40;99.90
7163;DHT22;3623;47.098;15.446;2022-11-09T06:52:59;4.50;99.90
7163;DHT22;3623;47.098;15.446;2022-11-09T06:55:29;4.50;99.90
7163;DHT22;3623;47.098;15.446;2022-11-09T06:57:57;4.50;99.90
7163;DHT22;3623;47.098;15.446;2022-11-09T07:00:25;4.50;99.90
7163;DHT22;3623;47.098;15.446;2022-11-09T07:02:53;4.50;99.90
7163;DHT22;3623;47.098;15.446;2022-11-09T07:05:20;4.60;99.90
7163;DHT22;3623;47.098;15.446;2022-11-09T07:07:47;4.60;99.90
7163;DHT22;3623;47.098;15.446;2022-11-09T07:10:15;4.60;99.90
7163;DHT22;3623;47.098;15.446;2022-11-09T07:12:44;4.60;99.90
7163;DHT22;3623;47.098;15.446;2022-11-09T07:15:11;4.60;99.90
7163;DHT22;3623;47.098;15.446;2022-11-09T07:17:38;4.60;99.90
7163;DHT22;3623;47.098;15.446;2022-11-09T07:20:07;4.70;99.90
7163;DHT22;3623;47.098;15.446;2022-11-09T07:22:34;4.70;99.90
7163;DHT22;3623;47.098;15.446;2022-11-09T07:25:05;4.70;99.90
7163;DHT22;3623;47.098;15.446;2022-11-09T07:27:33;4.70;99.90
7163;DHT22;3623;47.098;15.446;2022-11-09T07:30:02;4.80;99.90
7163;DHT22;3623;47.098;15.446;2022-11-09T07:32:32;4.80;99.90
7163;DHT22;3623;47.098;15.446;2022-11-09T07:34:59;4.90;99.90
7163;DHT22;3623;47.098;15.446;2022-11-09T07:37:26;5.00;99.90
7163;DHT22;3623;47.098;15.446;2022-11-09T07:39:53;4.90;99.90
7163;DHT22;3623;47.098;15.446;2022-11-09T07:42:20;5.00;99.90
7163;DHT22;3623;47.098;15.446;2022-11-09T07:44:47;5.00;99.90
7163;DHT22;3623;47.098;15.446;2022-11-09T07:47:17;5.10;99.90
7163;DHT22;3623;47.098;15.446;2022-11-09T07:49:45;5.30;99.90
7163;DHT22;3623;47.098;15.446;2022-11-09T07:52:13;5.30;99.90
7163;DHT22;3623;47.098;15.446;2022-11-09T07:54:40;5.40;99.90
7163;DHT22;3623;47.098;15.446;2022-11-09T07:57:07;5.50;99.90
7163;DHT22;3623;47.098;15.446;2022-11-09T07:59:34;5.60;99.90
7163;DHT22;3623;47.098;15.446;2022-11-09T08:02:01;5.70;99.90
7163;DHT22;3623;47.098;15.446;2022-11-09T08:04:29;5.90;99.90
7163;DHT22;3623;47.098;15.446;2022-11-09T08:06:56;6.00;99.90
7163;DHT22;3623;47.098;15.446;2022-11-09T08:09:23;6.20;99.90
7163;DHT22;3623;47.098;15.446;2022-11-09T08:11:50;6.30;99.90
7163;DHT22;3623;47.098;15.446;2022-11-09T08:14:18;6.40;99.90
7163;DHT22;3623;47.098;15.446;2022-11-09T08:16:45;6.80;99.90
7163;DHT22;3623;47.098;15.446;2022-11-09T08:19:12;7.20;99.90
7163;DHT22;3623;47.098;15.446;2022-11-09T08:21:40;7.40;99.90
7163;DHT22;3623;47.098;15.446;2022-11-09T08:24:07;7.30;99.90
7163;DHT22;3623;47.098;15.446;2022-11-09T08:26:34;7.30;99.90
7163;DHT22;3623;47.098;15.446;2022-11-09T08:29:01;7.30;99.90
7163;DHT22;3623;47.098;15.446;2022-11-09T08:31:28;7.50;99.90
7163;DHT22;3623;47.098;15.446;2022-11-09T08:33:55;7.50;99.90
7163;DHT22;3623;47.098;15.446;2022-11-09T08:36:22;7.80;99.90
7163;DHT22;3623;47.098;15.446;2022-11-09T08:38:52;7.90;99.90
7163;DHT22;3623;47.098;15.446;2022-11-09T08:41:19;7.90;99.90
7163;DHT22;3623;47.098;15.446;2022-11-09T08:43:46;7.80;99.90
7163;DHT22;3623;47.098;15.446;2022-11-09T08:46:13;7.80;99.90
7163;DHT22;3623;47.098;15.446;2022-11-09T08:48:40;7.90;99.90
7163;DHT22;3623;47.098;15.446;2022-11-09T08:51:07;8.10;99.90
7163;DHT22;3623;47.098;15.446;2022-11-09T08:53:34;8.30;99.90
7163;DHT22;3623;47.098;15.446;2022-11-09T08:56:04;8.50;99.90
7163;DHT22;3623;47.098;15.446;2022-11-09T08:58:32;8.80;99.90
7163;DHT22;3623;47.098;15.446;2022-11-09T09:00:59;9.20;99.90
7163;DHT22;3623;47.098;15.446;2022-11-09T09:03:26;9.70;99.90
7163;DHT22;3623;47.098;15.446;2022-11-09T09:05:53;10.50;99.90
7163;DHT22;3623;47.098;15.446;2022-11-09T09:08:20;10.70;99.90
7163;DHT22;3623;47.098;15.446;2022-11-09T09:10:47;10.60;99.90
7163;DHT22;3623;47.098;15.446;2022-11-09T09:13:16;10.50;99.90
7163;DHT22;3623;47.098;15.446;2022-11-09T09:15:47;10.40;99.90
7163;DHT22;3623;47.098;15.446;2022-11-09T09:18:14;10.30;99.90
7163;DHT22;3623;47.098;15.446;2022-11-09T09:20:41;10.40;99.90
7163;DHT22;3623;47.098;15.446;2022-11-09T09:23:09;10.30;99.90
7163;DHT22;3623;47.098;15.446;2022-11-09T09:25:37;10.40;99.90
7163;DHT22;3623;47.098;15.446;2022-11-09T09:28:04;10.40;99.90
7163;DHT22;3623;47.098;15.446;2022-11-09T09:30:33;10.50;99.90
7163;DHT22;3623;47.098;15.446;2022-11-09T09:33:02;10.80;99.90
7163;DHT22;3623;47.098;15.446;2022-11-09T09:35:30;10.90;99.90
7163;DHT22;3623;47.098;15.446;2022-11-09T09:37:57;11.10;99.90
7163;DHT22;3623;47.098;15.446;2022-11-09T09:40:28;11.50;99.90
7163;DHT22;3623;47.098;15.446;2022-11-09T09:42:57;11.70;99.90
7163;DHT22;3623;47.098;15.446;2022-11-09T09:45:27;11.90;99.90
7163;DHT22;3623;47.098;15.446;2022-11-09T09:48:01;12.20;99.90
7163;DHT22;3623;47.098;15.446;2022-11-09T09:53:17;12.50;99.90
7163;DHT22;3623;47.098;15.446;2022-11-09T09:55:52;13.10;99.90
7163;DHT22;3623;47.098;15.446;2022-11-09T09:58:24;13.40;99.90
7163;DHT22;3623;47.098;15.446;2022-11-09T10:00:55;13.50;99.90
7163;DHT22;3623;47.098;15.446;2022-11-09T10:03:24;14.10;99.90
7163;DHT22;3623;47.098;15.446;2022-11-09T10:05:57;14.10;99.90
7163;DHT22;3623;47.098;15.446;2022-11-09T10:08:36;14.40;99.90
7163;DHT22;3623;47.098;15.446;2022-11-09T10:11:14;14.70;99.90
7163;DHT22;3623;47.098;15.446;2022-11-09T10:14:11;14.50;99.90
7163;DHT22;3623;47.098;15.446;2022-11-09T10:16:48;14.50;99.90
7163;DHT22;3623;47.098;15.446;2022-11-09T10:19:33;14.70;99.90
7163;DHT22;3623;47.098;15.446;2022-11-09T10:22:08;14.40;99.90
7163;DHT22;3623;47.098;15.446;2022-11-09T10:24:47;14.40;99.90
7163;DHT22;3623;47.098;15.446;2022-11-09T10:27:26;14.50;99.90
7163;DHT22;3623;47.098;15.446;2022-11-09T10:29:57;15.10;99.90
7163;DHT22;3623;47.098;15.446;2022-11-09T10:32:28;15.60;99.90
7163;DHT22;3623;47.098;15.446;2022-11-09T10:35:02;15.70;99.90
7163;DHT22;3623;47.098;15.446;2022-11-09T10:37:35;16.10;99.90
7163;DHT22;3623;47.098;15.446;2022-11-09T10:40:08;16.70;99.90
7163;DHT22;3623;47.098;15.446;2022-11-09T10:42:37;16.80;99.90
7163;DHT22;3623;47.098;15.446;2022-11-09T10:45:11;17.50;99.90
7163;DHT22;3623;47.098;15.446;2022-11-09T10:47:46;18.00;99.90
7163;DHT22;3623;47.098;15.446;2022-11-09T10:50:24;17.90;99.90
7163;DHT22;3623;47.098;15.446;2022-11-09T10:52:52;17.80;99.90
7163;DHT22;3623;47.098;15.446;2022-11-09T10:55:23;17.30;99.90
7163;DHT22;3623;47.098;15.446;2022-11-09T10:57:57;17.10;99.90
7163;DHT22;3623;47.098;15.446;2022-11-09T11:00:26;17.30;99.90
7163;DHT22;3623;47.098;15.446;2022-11-09T11:02:54;17.90;99.90
7163;DHT22;3623;47.098;15.446;2022-11-09T11:05:32;17.90;99.90
7163;DHT22;3623;47.098;15.446;2022-11-09T11:08:29;17.80;99.90
7163;DHT22;3623;47.098;15.446;2022-11-09T11:11:17;18.20;99.90
7163;DHT22;3623;47.098;15.446;2022-11-09T11:13:45;18.10;99.90
7163;DHT22;3623;47.098;15.446;2022-11-09T11:16:28;18.50;99.90
7163;DHT22;3623;47.098;15.446;2022-11-09T11:18:57;18.60;99.90
7163;DHT22;3623;47.098;15.446;2022-11-09T11:21:27;19.00;99.90
7163;DHT22;3623;47.098;15.446;2022-11-09T11:24:21;19.20;99.90
7163;DHT22;3623;47.098;15.446;2022-11-09T11:26:53;19.60;99.90
7163;DHT22;3623;47.098;15.446;2022-11-09T11:29:38;19.60;99.90
7163;DHT22;3623;47.098;15.446;2022-11-09T11:32:09;20.30;99.90
7163;DHT22;3623;47.098;15.446;2022-11-09T11:34:38;20.40;99.90
7163;DHT22;3623;47.098;15.446;2022-11-09T11:37:16;20.90;99.90
7163;DHT22;3623;47.098;15.446;2022-11-09T11:39:57;21.00;99.90
7163;DHT22;3623;47.098;15.446;2022-11-09T11:42:49;22.00;99.90
7163;DHT22;3623;47.098;15.446;2022-11-09T11:45:26;21.40;99.90
7163;DHT22;3623;47.098;15.446;2022-11-09T11:48:10;20.50;99.90
7163;DHT22;3623;47.098;15.446;2022-11-09T11:50:43;20.60;99.90
7163;DHT22;3623;47.098;15.446;2022-11-09T11:53:41;20.20;99.90
7163;DHT22;3623;47.098;15.446;2022-11-09T11:56:19;21.20;99.90
7163;DHT22;3623;47.098;15.446;2022-11-09T11:59:30;22.00;99.90
7163;DHT22;3623;47.098;15.446;2022-11-09T12:02:14;22.20;99.80
7163;DHT22;3623;47.098;15.446;2022-11-09T12:05:22;22.50;99.20
7163;DHT22;3623;47.098;15.446;2022-11-09T12:07:54;22.80;97.70
7163;DHT22;3623;47.098;15.446;2022-11-09T12:10:38;22.40;98.30
7163;DHT22;3623;47.098;15.446;2022-11-09T12:13:15;22.40;98.50
7163;DHT22;3623;47.098;15.446;2022-11-09T12:15:51;22.40;97.40
7163;DHT22;3623;47.098;15.446;2022-11-09T12:18:32;22.40;96.70
7163;DHT22;3623;47.098;15.446;2022-11-09T12:21:14;22.70;97.20
7163;DHT22;3623;47.098;15.446;2022-11-09T12:24:05;22.30;96.40
7163;DHT22;3623;47.098;15.446;2022-11-09T12:26:46;22.10;96.50
7163;DHT22;3623;47.098;15.446;2022-11-09T12:29:19;22.40;96.60
7163;DHT22;3623;47.098;15.446;2022-11-09T12:31:59;22.80;96.40
7163;DHT22;3623;47.098;15.446;2022-11-09T12:34:32;22.70;96.00
7163;DHT22;3623;47.098;15.446;2022-11-09T12:37:02;23.20;96.50
7163;DHT22;3623;47.098;15.446;2022-11-09T12:39:35;22.50;96.10
7163;DHT22;3623;47.098;15.446;2022-11-09T12:42:09;22.30;95.80
7163;DHT22;3623;47.098;15.446;2022-11-09T12:44:41;21.90;96.80
7163;DHT22;3623;47.098;15.446;2022-11-09T12:47:17;21.20;96.60
7163;DHT22;3623;47.098;15.446;2022-11-09T12:49:46;20.30;96.90
7163;DHT22;3623;47.098;15.446;2022-11-09T12:52:15;19.80;98.50
7163;DHT22;3623;47.098;15.446;2022-11-09T12:54:46;18.60;97.90
7163;DHT22;3623;47.098;15.446;2022-11-09T12:57:21;18.00;99.70
7163;DHT22;3623;47.098;15.446;2022-11-09T12:59:51;17.50;99.90
7163;DHT22;3623;47.098;15.446;2022-11-09T13:02:27;16.90;99.90
7163;DHT22;3623;47.098;15.446;2022-11-09T13:04:56;16.70;99.90
7163;DHT22;3623;47.098;15.446;2022-11-09T13:07:38;16.50;99.90
7163;DHT22;3623;47.098;15.446;2022-11-09T13:10:25;16.10;99.90
7163;DHT22;3623;47.098;15.446;2022-11-09T13:13:04;15.70;99.90
7163;DHT22;3623;47.098;15.446;2022-11-09T13:15:32;15.40;99.90
7163;DHT22;3623;47.098;15.446;2022-11-09T13:18:02;15.20;99.90
7163;DHT22;3623;47.098;15.446;2022-11-09T13:20:45;15.00;99.90
7163;DHT22;3623;47.098;15.446;2022-11-09T13:23:28;14.60;99.90
7163;DHT22;3623;47.098;15.446;2022-11-09T13:25:56;14.30;99.90
7163;DHT22;3623;47.098;15.446;2022-11-09T13:29:07;14.20;99.90
7163;DHT22;3623;47.098;15.446;2022-11-09T13:32:04;14.20;99.90
7163;DHT22;3623;47.098;15.446;2022-11-09T13:34:43;14.20;99.90
7163;DHT22;3623;47.098;15.446;2022-11-09T13:37:36;13.90;99.90
7163;DHT22;3623;47.098;15.446;2022-11-09T13:43:04;13.70;99.90
7163;DHT22;3623;47.098;15.446;2022-11-09T13:45:35;13.70;99.90
7163;DHT22;3623;47.098;15.446;2022-11-09T13:48:04;13.50;99.90
7163;DHT22;3623;47.098;15.446;2022-11-09T13:50:33;13.30;99.90
7163;DHT22;3623;47.098;15.446;2022-11-09T13:53:01;13.20;99.90
7163;DHT22;3623;47.098;15.446;2022-11-09T13:55:32;13.10;99.90
7163;DHT22;3623;47.098;15.446;2022-11-09T13:58:05;13.10;99.90
7163;DHT22;3623;47.098;15.446;2022-11-09T14:00:44;13.00;99.90
7163;DHT22;3623;47.098;15.446;2022-11-09T14:03:21;13.00;99.90
7163;DHT22;3623;47.098;15.446;2022-11-09T14:05:51;13.00;99.90
7163;DHT22;3623;47.098;15.446;2022-11-09T14:08:21;13.00;99.90
7163;DHT22;3623;47.098;15.446;2022-11-09T14:11:09;13.00;99.90
7163;DHT22;3623;47.098;15.446;2022-11-09T14:16:58;12.90;99.90
7163;DHT22;3623;47.098;15.446;2022-11-09T14:19:33;12.70;99.90
7163;DHT22;3623;47.098;15.446;2022-11-09T14:22:12;12.60;99.90
7163;DHT22;3623;47.098;15.446;2022-11-09T14:24:41;12.60;99.90
7163;DHT22;3623;47.098;15.446;2022-11-09T14:27:17;12.40;99.90
7163;DHT22;3623;47.098;15.446;2022-11-09T14:29:52;12.40;99.90
7163;DHT22;3623;47.098;15.446;2022-11-09T14:32:30;12.30;99.90
7163;DHT22;3623;47.098;15.446;2022-11-09T14:35:29;12.10;99.90
7163;DHT22;3623;47.098;15.446;2022-11-09T14:37:58;11.90;99.90
7163;DHT22;3623;47.098;15.446;2022-11-09T14:40:27;11.70;99.90
7163;DHT22;3623;47.098;15.446;2022-11-09T14:42:57;11.50;99.90
7163;DHT22;3623;47.098;15.446;2022-11-09T14:45:26;11.40;99.90
7163;DHT22;3623;47.098;15.446;2022-11-09T14:47:57;11.20;99.90
7163;DHT22;3623;47.098;15.446;2022-11-09T14:50:26;11.00;99.90
7163;DHT22;3623;47.098;15.446;2022-11-09T14:52:54;10.80;99.90
7163;DHT22;3623;47.098;15.446;2022-11-09T14:55:23;10.60;99.90
7163;DHT22;3623;47.098;15.446;2022-11-09T14:57:53;10.40;99.90
7163;DHT22;3623;47.098;15.446;2022-11-09T15:00:22;10.30;99.90
7163;DHT22;3623;47.098;15.446;2022-11-09T15:02:50;10.00;99.90
7163;DHT22;3623;47.098;15.446;2022-11-09T15:05:34;9.80;99.90
7163;DHT22;3623;47.098;15.446;2022-11-09T15:08:04;9.80;99.90
7163;DHT22;3623;47.098;15.446;2022-11-09T15:10:33;9.60;99.90
7163;DHT22;3623;47.098;15.446;2022-11-09T15:13:01;9.50;99.90
7163;DHT22;3623;47.098;15.446;2022-11-09T15:15:30;9.40;99.90
7163;DHT22;3623;47.098;15.446;2022-11-09T15:17:58;9.20;99.90
7163;DHT22;3623;47.098;15.446;2022-11-09T15:20:32;9.10;99.90
7163;DHT22;3623;47.098;15.446;2022-11-09T15:23:01;8.90;99.90
7163;DHT22;3623;47.098;15.446;2022-11-09T15:25:31;8.70;99.90
7163;DHT22;3623;47.098;15.446;2022-11-09T15:28:28;8.60;99.90
7163;DHT22;3623;47.098;15.446;2022-11-09T15:31:11;8.40;99.90
7163;DHT22;3623;47.098;15.446;2022-11-09T15:33:46;8.30;99.90
7163;DHT22;3623;47.098;15.446;2022-11-09T15:36:27;8.20;99.90
7163;DHT22;3623;47.098;15.446;2022-11-09T15:38:59;8.00;99.90
7163;DHT22;3623;47.098;15.446;2022-11-09T15:41:27;7.90;99.90
7163;DHT22;3623;47.098;15.446;2022-11-09T15:43:54;7.70;99.90
7163;DHT22;3623;47.098;15.446;2022-11-09T15:46:23;7.60;99.90
7163;DHT22;3623;47.098;15.446;2022-11-09T15:48:51;7.50;99.90
7163;DHT22;3623;47.098;15.446;2022-11-09T15:51:18;7.50;99.90
7163;DHT22;3623;47.098;15.446;2022-11-09T15:53:47;7.40;99.90
7163;DHT22;3623;47.098;15.446;2022-11-09T15:56:16;7.40;99.90
7163;DHT22;3623;47.098;15.446;2022-11-09T15:58:43;7.30;99.90
7163;DHT22;3623;47.098;15.446;2022-11-09T16:01:11;7.30;99.90
7163;DHT22;3623;47.098;15.446;2022-11-09T16:03:38;7.30;99.90
7163;DHT22;3623;47.098;15.446;2022-11-09T16:06:08;7.20;99.90
7163;DHT22;3623;47.098;15.446;2022-11-09T16:08:36;7.20;99.90
7163;DHT22;3623;47.098;15.446;2022-11-09T16:11:05;7.20;99.90
7163;DHT22;3623;47.098;15.446;2022-11-09T16:13:33;7.10;99.90
7163;DHT22;3623;47.098;15.446;2022-11-09T16:16:01;7.00;99.90
7163;DHT22;3623;47.098;15.446;2022-11-09T16:18:29;6.90;99.90
7163;DHT22;3623;47.098;15.446;2022-11-09T16:20:56;6.80;99.90
7163;DHT22;3623;47.098;15.446;2022-11-09T16:23:25;6.80;99.90
7163;DHT22;3623;47.098;15.446;2022-11-09T16:25:52;6.80;99.90
7163;DHT22;3623;47.098;15.446;2022-11-09T16:28:22;6.70;99.90